Latest Weather Observations for East Sale

IDV60801

Issued at 10:03 am EST Wednesday 24 May 2017 (issued every 30 minutes, with the page automatically refreshed every 10 minutes)

About weather observations | Map of weather stations | Latest weather observations for VIC | Other Formats
Station Details ID: 085072 Name: EAST SALE AIRPORT Lat: -38.12 Lon: 147.13 Height: 4.6 m
Data from the previous 72 hours. | See also: Recent months at East Sale
Date/Time
EST
Temp
°C
App
Temp
°C
Dew
Point
°C
Rel
Hum
%
Delta-T
°C
Wind Press
QNH
hPa
Press
MSL
hPa
Rain since
9am
mm
Dir  Spd
km/h
Gust
km/h
Spd
kts
Gust
kts
24/10:00am 15.5 9.5 8.7 64 3.5 W 30 44 16 24 1013.9 1013.9 -
24/09:30am 14.4 9.2 9.0 70 2.7 W 26 39 14 21 1013.7 1013.7 0.0
24/09:00am 13.5 8.8 9.2 75 2.2 W 24 33 13 18 1013.7 1013.7 0.0
24/08:30am 12.5 8.1 9.0 79 1.8 WSW 22 30 12 16 1013.3 1013.3 0.0
24/08:00am 10.9 7.3 8.5 85 1.2 WSW 17 24 9 13 1013.1 1013.1 0.0
24/07:30am 8.7 5.3 7.5 92 0.6 W 15 20 8 11 1012.9 1012.9 0.0
24/07:00am 8.2 5.9 7.6 96 0.3 W 9 13 5 7 1012.7 1012.7 0.0
24/06:30am 8.6 6.5 8.3 98 0.1 NW 9 13 5 7 1012.2 1012.2 0.0
24/06:00am 7.8 5.6 7.7 99 0.0 NNW 9 11 5 6 1012.0 1012.0 0.0
24/05:30am 6.8 4.2 6.1 95 0.3 WNW 9 13 5 7 1011.5 1011.5 0.0
24/05:00am 8.4 5.4 7.8 96 0.3 WNW 13 17 7 9 1011.2 1011.2 0.0
24/04:30am 8.6 6.1 8.0 96 0.3 NW 11 17 6 9 1011.3 1011.3 0.0
24/04:00am 9.6 6.9 8.8 95 0.4 W 13 17 7 9 1011.6 1011.6 0.0
24/03:30am 9.0 7.0 8.7 98 0.1 W 9 17 5 9 1011.7 1011.7 0.0
24/03:00am 8.3 6.2 8.2 99 0.0 WSW 9 13 5 7 1011.7 1011.7 0.0
24/02:30am 8.0 6.4 7.9 99 0.0 WNW 6 15 3 8 1012.0 1012.0 0.0
24/02:00am 7.7 5.5 7.7 100 0.0 NNW 9 11 5 6 1011.9 1011.9 0.0
24/01:30am 7.1 4.7 7.0 99 0.0 NNW 9 11 5 6 1012.1 1012.1 0.0
24/01:00am 7.1 5.3 7.0 99 0.0 NW 6 9 3 5 1012.3 1012.3 0.0
24/12:30am 6.6 4.4 6.3 98 0.1 N 7 11 4 6 1012.6 1012.6 0.0
24/12:00am 7.7 7.1 7.4 98 0.1 CALM 0 0 0 0 1012.9 1012.9 0.0
 
Date/Time
EST
Temp
°C
App
Temp
°C
Dew
Point
°C
Rel
Hum
%
Delta-T
°C
Wind Press
QNH
hPa
Press
MSL
hPa
Rain since
9am
mm
Dir  Spd
km/h
Gust
km/h
Spd
kts
Gust
kts
23/11:30pm 7.3 6.6 6.9 97 0.2 CALM 0 0 0 0 1013.4 1013.4 0.0
23/11:00pm 7.5 5.5 7.1 97 0.2 W 7 9 4 5 1013.9 1013.9 0.0
23/10:30pm 7.7 5.9 7.3 97 0.2 WNW 6 11 3 6 1014.1 1014.1 0.0
23/10:00pm 8.2 6.0 7.9 98 0.1 NW 9 13 5 7 1014.1 1014.1 0.0
23/09:30pm 8.0 7.1 7.6 97 0.2 WNW 2 7 1 4 1014.3 1014.3 0.0
23/09:00pm 8.6 8.1 8.0 96 0.3 CALM 0 6 0 3 1014.3 1014.3 0.0
23/08:30pm 8.6 8.0 7.5 93 0.5 CALM 0 0 0 0 1014.4 1014.4 0.0
23/08:00pm 9.5 7.9 7.9 90 0.8 NNW 6 9 3 5 1014.5 1014.5 0.0
23/07:30pm 10.7 10.5 9.0 89 0.8 CALM 0 2 0 1 1014.5 1014.5 0.0
23/07:00pm 11.4 10.0 9.5 88 1.0 WSW 7 11 4 6 1014.5 1014.5 0.0
23/06:30pm 11.9 10.3 10.3 90 0.8 SSE 9 11 5 6 1014.5 1014.5 0.0
23/06:00pm 13.1 11.8 9.9 81 1.6 ESE 7 9 4 5 1014.4 1014.4 0.0
23/05:30pm 13.1 11.8 9.9 81 1.6 ENE 7 9 4 5 1014.4 1014.4 0.0
23/05:00pm 14.8 13.8 11.0 78 2.0 E 7 9 4 5 1014.1 1014.1 0.0
23/04:30pm 15.8 15.0 11.2 74 2.5 E 6 7 3 4 1014.2 1014.2 0.0
23/04:00pm 16.2 15.0 11.6 74 2.5 S 9 11 5 6 1014.1 1014.1 0.0
23/03:30pm 16.4 15.4 10.9 70 2.9 E 7 11 4 6 1014.1 1014.1 0.0
23/03:00pm 15.9 14.7 11.7 76 2.3 SE 9 11 5 6 1014.2 1014.2 0.0
23/02:30pm 17.1 16.8 10.0 63 3.7 ENE 2 11 1 6 1014.5 1014.5 0.0
23/02:00pm 17.2 16.5 9.9 62 3.8 WSW 4 6 2 3 1014.8 1014.8 0.0
23/01:30pm 17.2 17.1 9.6 61 4.0 CALM 0 0 0 0 1014.8 1014.8 0.0
23/01:00pm 17.4 15.7 9.8 61 4.0 NW 9 13 5 7 1015.5 1015.5 0.0
23/12:30pm 16.8 14.8 8.5 58 4.2 N 9 11 5 6 1015.7 1015.7 0.0
23/12:00pm 15.4 15.9 11.6 78 2.0 CALM 0 0 0 0 1016.4 1016.4 0.0
23/11:30am 14.5 13.6 11.3 81 1.7 SSE 7 9 4 5 1016.5 1016.5 0.0
23/11:00am 13.9 12.3 10.3 79 1.9 NE 9 11 5 6 - - 0.0
23/10:30am 13.0 13.3 10.9 87 1.1 CALM 0 0 0 0 1017.7 1017.7 0.0
23/10:00am 12.3 11.2 10.7 90 0.8 ESE 7 11 4 6 1017.7 1017.7 0.0
23/09:30am 11.5 11.7 10.6 94 0.5 CALM 0 0 0 0 1018.2 1018.2 0.0
23/09:00am 10.7 9.4 9.9 95 0.4 SW 7 9 4 5 1018.6 1018.6 0.0
23/08:30am 10.3 8.2 9.8 97 0.3 SSW 11 13 6 7 1018.1 1018.1 0.0
23/08:00am 9.7 9.5 8.9 95 0.4 CALM 0 6 0 3 1018.8 1018.8 0.0
23/07:30am 10.2 8.7 9.0 92 0.6 N 7 11 4 6 1018.4 1018.4 0.0
23/07:00am 10.0 8.1 9.1 94 0.4 N 9 13 5 7 1018.1 1018.1 0.0
23/06:30am 10.1 7.1 9.2 94 0.4 NNW 15 20 8 11 1018.2 1018.2 0.0
23/06:00am 9.9 8.0 9.1 95 0.4 WNW 9 17 5 9 1017.9 1017.9 0.0
23/05:30am 9.8 8.0 9.3 97 0.2 WNW 9 13 5 7 1017.8 1017.8 0.0
23/05:00am 9.7 7.8 9.2 97 0.2 WNW 9 11 5 6 1018.0 1018.0 0.0
23/04:30am 9.8 8.0 9.5 98 0.1 NW 9 11 5 6 1017.6 1017.6 0.0
23/04:00am 9.6 8.2 9.5 99 0.0 W 7 13 4 7 1017.8 1017.8 0.0
23/03:30am 9.2 6.9 9.1 99 0.0 W 11 17 6 9 1017.5 1017.5 0.0
23/03:00am 8.7 7.1 8.6 99 0.0 WSW 7 13 4 7 1017.2 1017.2 0.0
23/02:30am 8.2 6.4 8.1 99 0.0 NW 7 11 4 6 1017.3 1017.3 0.0
23/02:00am 8.4 6.3 8.3 99 0.0 NNW 9 15 5 8 1017.4 1017.4 0.0
23/01:30am 8.1 6.9 8.0 99 0.0 WNW 4 11 2 6 1017.4 1017.4 0.0
23/01:00am 8.0 6.4 7.9 99 0.0 N 6 11 3 6 1017.5 1017.5 0.0
23/12:30am 7.9 6.3 7.8 99 0.0 NNE 6 9 3 5 1017.9 1017.9 0.0
23/12:16am 8.2 6.4 8.1 99 0.0 N 7 9 4 5 1018.0 1018.0 0.0
23/12:00am 8.6 6.9 8.5 99 0.0 N 7 9 4 5 1018.3 1018.3 0.0
 
Date/Time
EST
Temp
°C
App
Temp
°C
Dew
Point
°C
Rel
Hum
%
Delta-T
°C
Wind Press
QNH
hPa
Press
MSL
hPa
Rain since
9am
mm
Dir  Spd
km/h
Gust
km/h
Spd
kts
Gust
kts
22/11:59pm 8.6 7.0 8.6 100 0.0 N 7 9 4 5 1018.3 1018.3 0.0
22/11:30pm 7.6 7.0 7.5 99 0.0 CALM 0 0 0 0 1018.4 1018.4 0.0
22/11:00pm 7.6 7.0 7.5 99 0.0 CALM 0 0 0 0 1018.6 1018.6 0.0
22/10:30pm 8.7 7.2 8.6 99 0.0 NE 6 7 3 4 1018.7 1018.7 0.0
22/10:00pm 9.4 7.9 9.3 99 0.0 ESE 7 9 4 5 1018.8 1018.8 0.0
22/09:30pm 9.8 9.0 9.5 98 0.1 SE 4 7 2 4 1018.8 1018.8 0.0
22/09:01pm 10.2 9.1 9.9 98 0.2 SE 6 7 3 4 1018.8 1018.8 0.0
22/09:00pm 10.1 9.0 9.8 98 0.2 SE 6 7 3 4 1018.8 1018.8 0.0
22/08:51pm 10.2 9.1 10.1 99 0.1 SE 6 7 3 4 1018.9 1018.9 0.0
22/08:30pm 11.1 11.4 10.8 98 0.2 CALM 0 0 0 0 1019.0 1019.0 0.0
22/08:00pm 11.2 10.3 10.6 96 0.3 ESE 6 6 3 3 1019.1 1019.1 0.0
22/07:30pm 11.5 10.4 10.6 94 0.5 ESE 7 9 4 5 1018.9 1018.9 0.0
22/07:00pm 11.5 9.5 10.1 91 0.7 ESE 11 11 6 6 1018.9 1018.9 0.0
22/06:30pm 12.0 10.4 10.1 88 1.0 SE 9 11 5 6 1019.0 1019.0 0.0
22/06:00pm 12.3 9.8 9.7 84 1.3 ESE 13 17 7 9 1018.8 1018.8 0.0
22/05:30pm 13.1 11.0 9.9 81 1.6 ESE 11 13 6 7 1018.7 1018.7 0.0
22/05:00pm 15.5 12.4 10.3 71 2.7 E 17 20 9 11 1018.3 1018.3 0.0
22/04:30pm 17.2 13.7 10.1 63 3.8 E 19 24 10 13 1018.3 1018.3 0.0
22/04:00pm 18.8 15.1 10.1 57 4.6 E 20 24 11 13 1018.5 1018.5 0.0
22/03:30pm 19.9 15.9 8.9 49 5.8 E 20 26 11 14 1018.7 1018.7 0.0
22/03:00pm 20.3 16.6 9.5 50 5.7 E 19 22 10 12 1019.0 1019.0 0.0
22/02:30pm 20.3 17.0 9.5 50 5.8 E 17 20 9 11 1019.1 1019.1 0.0
22/02:00pm 20.4 17.5 9.6 50 5.7 E 15 19 8 10 1019.4 1019.4 0.0
22/01:30pm 20.2 17.8 10.0 52 5.5 E 13 15 7 8 1019.8 1019.8 0.0
22/01:00pm 19.3 17.0 10.6 57 4.7 E 13 15 7 8 1020.2 1020.2 0.0
22/12:30pm 18.7 17.5 10.3 58 4.5 E 7 11 4 6 1020.7 1020.7 0.0
22/12:00pm 19.6 18.8 10.9 57 4.7 N 6 9 3 5 1021.3 1021.3 0.0
22/11:30am 17.4 16.2 9.6 60 4.1 N 6 9 3 5 1021.8 1021.8 0.0
22/11:00am 16.9 15.8 9.8 63 3.7 NW 6 7 3 4 1022.3 1022.3 0.0
22/10:30am 15.7 14.7 10.2 70 2.9 NNW 6 7 3 4 1022.8 1022.8 0.0
22/10:00am 13.1 11.8 9.2 77 2.0 NNW 6 7 3 4 1023.1 1023.1 0.0
22/09:30am 12.7 10.9 9.5 81 1.6 W 9 13 5 7 1023.3 1023.3 0.0
22/09:00am 11.2 9.4 9.6 90 0.8 WNW 9 13 5 7 1023.3 1023.3 0.2
22/08:30am 9.1 7.6 9.1 100 0.0 W 7 9 4 5 1023.1 1023.1 0.2
22/08:00am 7.3 4.9 7.2 99 0.0 NW 9 9 5 5 1022.9 1022.9 0.2
22/07:30am 5.4 2.6 5.3 99 0.0 NW 9 11 5 6 1022.8 1022.8 0.2
22/07:00am 4.2 1.8 4.1 99 0.0 NW 6 7 3 4 1022.8 1022.8 0.2
22/06:30am 4.8 2.3 4.7 99 0.0 NW 7 9 4 5 1022.6 1022.6 0.2
22/06:00am 4.2 1.2 3.9 98 0.1 NW 9 9 5 5 1022.4 1022.4 0.2
22/05:30am 4.9 2.4 4.6 98 0.1 NW 7 7 4 4 1022.1 1022.1 0.2
22/05:00am 6.2 3.9 5.9 98 0.1 NNW 7 9 4 5 1022.0 1022.0 0.2
22/04:30am 6.6 4.4 6.0 96 0.3 NW 7 9 4 5 1022.0 1022.0 0.2
22/04:00am 7.0 4.4 5.9 93 0.5 NNW 9 9 5 5 1022.0 1022.0 0.2
22/03:30am 7.6 5.6 6.9 95 0.3 WNW 7 7 4 4 1021.9 1021.9 0.2
22/03:00am 7.8 5.7 6.7 93 0.5 WNW 7 9 4 5 1021.9 1021.9 0.2
22/02:30am 6.8 4.2 5.9 94 0.4 WNW 9 11 5 6 1021.9 1021.9 0.2
22/02:00am 7.1 3.7 5.7 91 0.6 NW 13 15 7 8 1021.8 1021.8 0.2
22/01:30am 8.0 4.7 6.3 89 0.8 NW 13 13 7 7 1021.7 1021.7 0.2
22/01:00am 7.2 4.1 5.7 90 0.7 NW 11 13 6 7 1021.9 1021.9 0.2
22/12:30am 7.1 5.1 6.2 94 0.4 NW 6 11 3 6 1021.9 1021.9 0.2
22/12:00am 7.8 7.1 6.9 94 0.4 CALM 0 4 0 2 1022.1 1022.1 0.2
 
Date/Time
EST
Temp
°C
App
Temp
°C
Dew
Point
°C
Rel
Hum
%
Delta-T
°C
Wind Press
QNH
hPa
Press
MSL
hPa
Rain since
9am
mm
Dir  Spd
km/h
Gust
km/h
Spd
kts
Gust
kts
21/11:30pm 8.3 5.5 6.9 91 0.6 NNW 11 13 6 7 1021.9 1021.9 0.2
21/11:00pm 10.1 7.9 7.7 85 1.1 NW 9 13 5 7 1021.9 1021.9 0.2
21/10:30pm 9.3 7.2 8.1 92 0.6 NW 9 11 5 6 1022.0 1022.0 0.2
21/10:00pm 9.6 7.5 8.4 92 0.6 NW 9 11 5 6 1021.9 1021.9 0.2
21/09:30pm 9.1 7.1 8.5 96 0.3 NW 9 11 5 6 1022.0 1022.0 0.2
21/09:00pm 9.1 7.5 8.2 94 0.4 NW 6 7 3 4 1021.7 1021.7 0.2
21/08:30pm 10.3 10.1 9.2 93 0.5 CALM 0 0 0 0 1021.5 1021.5 0.2
21/08:00pm 11.3 10.1 9.4 88 0.9 WNW 6 9 3 5 1021.2 1021.2 0.2
21/07:30pm 10.9 9.0 9.0 88 0.9 NW 9 11 5 6 1021.0 1021.0 0.2
21/07:00pm 11.7 10.2 9.3 85 1.2 NW 7 9 4 5 1020.8 1020.8 0.2
21/06:30pm 11.8 9.5 9.0 83 1.4 NNW 11 11 6 6 1020.4 1020.4 0.2
21/06:00pm 12.0 10.5 9.0 82 1.5 NW 7 7 4 4 1020.2 1020.2 0.2
21/05:30pm 14.0 13.2 9.6 75 2.3 W 4 6 2 3 1019.8 1019.8 0.2
21/05:00pm 16.4 14.6 9.6 64 3.5 WSW 9 9 5 5 1019.5 1019.5 0.2
21/04:30pm 18.0 15.9 9.9 59 4.3 WSW 11 13 6 7 1019.3 1019.3 0.2
21/04:00pm 19.5 16.8 9.1 51 5.5 WSW 13 15 7 8 1019.1 1019.1 0.2
21/03:30pm 20.0 17.1 9.6 51 5.5 WSW 15 20 8 11 1018.9 1018.9 0.2
21/03:00pm 20.0 16.3 9.6 51 5.5 W 19 26 10 14 1018.8 1018.8 0.2
21/02:30pm 20.5 16.8 9.4 49 5.9 WNW 19 24 10 13 1018.7 1018.7 0.2
21/02:00pm 20.5 16.8 9.4 49 5.9 W 19 28 10 15 1018.6 1018.6 0.2
21/01:30pm 19.9 16.3 10.0 53 5.3 WNW 19 24 10 13 1018.6 1018.6 0.2
21/01:00pm 20.4 17.5 9.6 50 5.8 NW 15 19 8 10 1018.8 1018.8 0.2
21/12:30pm 19.7 17.7 11.5 59 4.5 NW 13 20 7 11 1019.1 1019.1 0.2
21/12:00pm 18.0 17.2 11.6 66 3.5 N 7 11 4 6 1019.6 1019.6 0.2
21/11:30am 17.0 15.6 10.8 67 3.3 N 9 11 5 6 1020.0 1020.0 0.0
21/11:00am 15.9 14.8 10.7 71 2.8 NNW 7 11 4 6 1020.2 1020.2 0.0
21/10:30am 14.3 13.0 11.1 81 1.7 NNW 9 11 5 6 1020.5 1020.5 0.0

Other Formats:

Comma delimited format used in spreadsheet applications
http://www.bom.gov.au/fwo/IDV60801/IDV60801.94907.axf

JavaScript Object Notation format (JSON) in row-major order
http://www.bom.gov.au/fwo/IDV60801/IDV60801.94907.json